Latest Weather Observations for Shark Bay Airport

IDW60801

Issued at 8:05 am WST Tuesday 25 November 2014 (issued every 30 minutes, with the page automatically refreshed every 10 minutes)

About weather observations | Map of weather stations | Latest weather observations for WA | Other Formats
Station Details ID: 006105 Name: SHARK BAY AIRPORT Lat: -25.89 Lon: 113.58 Height: 33.8 m
Data from the previous 72 hours. | See also: Recent months for locations in Western Australia
Date/Time
WST
Temp
°C
App
Temp
°C
Dew
Point
Rel
Hum
%
Delta-T
°C
Wind Press
QNH
hPa
Press
MSL
hPa
Rain
since 9 am
mm
Dir
 
Spd
km/h
Gust
km/h
Spd
kts
Gust
kts
25/08:00am 27.9 26.5 12.3 38 9.1 SSE 11 17 6 9 1008.9 1008.7 0.0
25/07:30am 26.1 24.2 14.2 48 7.1 S 17 20 9 11 1009.0 1008.8 0.0
25/07:00am 23.9 22.3 15.9 61 4.9 S 19 24 10 13 1009.1 1008.9 0.0
25/06:30am 21.8 21.2 16.7 73 3.1 S 15 22 8 12 1009.0 1008.8 0.0
25/06:00am 20.0 19.4 16.6 81 2.1 SSW 15 17 8 9 1008.9 1008.7 0.0
25/05:30am 19.5 19.1 16.3 82 1.9 SSW 13 17 7 9 1008.8 1008.6 0.0
25/05:00am 19.7 18.6 16.3 81 2.0 S 17 22 9 12 1008.9 1008.7 0.0
25/04:30am 19.9 19.3 16.7 82 1.9 S 15 20 8 11 1008.9 1008.7 0.0
25/04:00am 20.1 19.1 16.5 80 2.2 S 17 24 9 13 1009.1 1008.9 0.0
25/03:30am 20.3 19.0 16.7 80 2.2 S 19 24 10 13 1009.4 1009.2 0.0
25/03:00am 20.4 18.5 16.8 80 2.2 S 22 32 12 17 1009.5 1009.3 0.0
25/02:30am 20.4 18.1 16.6 79 2.3 S 24 35 13 19 1009.7 1009.5 0.0
25/02:00am 20.4 18.1 16.6 79 2.3 S 24 37 13 20 1009.9 1009.7 0.0
25/01:30am 20.6 17.8 16.4 77 2.5 S 26 43 14 23 1010.3 1010.2 0.0
25/01:00am 20.7 17.6 16.5 77 2.5 S 28 37 15 20 1010.4 1010.3 0.0
25/12:30am 20.8 18.0 16.4 76 2.7 S 26 41 14 22 1010.6 1010.5 0.0
25/12:00am 21.0 18.2 16.4 75 2.8 S 26 37 14 20 1010.9 1010.8 0.0
 
Date/Time
WST
Temp
°C
App
Temp
°C
Dew
Point
Rel
Hum
%
Delta-T
°C
Wind Press
QNH
hPa
Press
MSL
hPa
Rain
since 9 am
mm
Dir
 
Spd
km/h
Gust
km/h
Spd
kts
Gust
kts
24/11:32pm 21.1 17.8 16.1 73 3.0 S 28 46 15 25 1011.2 1011.1 0.0
24/11:30pm 21.2 17.6 16.2 73 3.0 S 30 46 16 25 1011.2 1011.1 0.0
24/11:00pm 21.3 17.9 15.8 71 3.3 S 28 39 15 21 1011.3 1011.2 0.0
24/10:30pm 21.4 17.5 15.5 69 3.5 S 30 50 16 27 1011.4 1011.3 0.0
24/10:25pm 21.5 17.6 15.6 69 3.5 S 30 50 16 27 1011.4 1011.3 0.0
24/10:00pm 21.6 17.3 15.4 68 3.7 S 32 46 17 25 1011.5 1011.4 0.0
24/09:30pm 21.8 17.5 15.4 67 3.8 S 32 41 17 22 1011.5 1011.4 0.0
24/09:00pm 21.8 17.5 15.4 67 3.8 S 32 48 17 26 1011.3 1011.2 0.0
24/08:30pm 22.0 17.1 15.4 66 3.9 S 35 46 19 25 1011.1 1011.0 0.0
24/08:00pm 22.2 17.2 15.1 64 4.2 S 35 48 19 26 1010.9 1010.8 0.0
24/07:50pm 22.3 17.6 14.9 63 4.4 S 33 52 18 28 1010.8 1010.7 0.0
24/07:30pm 22.5 17.7 14.6 61 4.7 S 33 44 18 24 1010.7 1010.6 0.0
24/07:00pm 23.3 17.4 13.5 54 5.7 S 37 57 20 31 1010.4 1010.3 0.0
24/06:57pm 23.5 17.9 13.4 53 5.9 S 35 57 19 31 1010.4 1010.3 0.0
24/06:30pm 24.7 20.1 13.6 50 6.5 S 30 46 16 25 1010.1 1009.9 0.0
24/06:00pm 25.9 20.6 13.1 45 7.5 S 33 50 18 27 1009.7 1009.5 0.0
24/05:54pm 26.6 21.8 13.0 43 8.0 S 30 50 16 27 1009.7 1009.5 0.0
24/05:30pm 27.3 22.4 14.3 45 7.8 S 33 50 18 27 1009.5 1009.3 0.0
24/05:00pm 28.2 23.7 15.5 46 7.8 SSW 33 41 18 22 1009.4 1009.2 0.0
24/04:30pm 29.1 24.7 15.6 44 8.3 SSW 33 44 18 24 1009.4 1009.2 0.0
24/04:00pm 31.3 26.6 14.4 35 10.3 SSW 32 39 17 21 1009.6 1009.4 0.0
24/03:30pm 32.9 27.6 12.5 29 12.2 SSW 32 43 17 23 1009.6 1009.4 0.0
24/03:00pm 32.9 27.9 14.0 32 11.5 SW 33 44 18 24 1009.7 1009.5 0.0
24/02:30pm 34.3 29.0 12.6 27 13.0 SSW 32 43 17 23 1009.8 1009.6 0.0
24/02:28pm 34.0 28.5 11.8 26 13.2 SSW 32 43 17 23 1009.8 1009.6 0.0
24/02:00pm 36.1 32.0 2.2 12 17.5 SE 13 24 7 13 1010.3 1010.2 0.0
24/01:30pm 36.4 31.2 2.4 12 17.6 E 19 28 10 15 1010.6 1010.5 0.0
24/01:00pm 35.7 29.6 3.0 13 17.0 ESE 24 33 13 18 1011.0 1010.9 0.0
24/12:30pm 35.0 28.7 3.5 14 16.5 SE 26 35 14 19 1011.4 1011.3 0.0
24/12:00pm 34.2 27.7 2.9 14 16.1 E 26 39 14 21 1012.0 1011.9 0.0
24/11:30am 33.1 26.8 3.9 16 15.2 ESE 26 37 14 20 1012.4 1012.3 0.0
24/11:00am 31.7 25.2 4.5 18 14.2 ESE 28 43 15 23 1012.9 1012.8 0.0
24/10:30am 29.9 23.6 5.9 22 12.7 SE 28 44 15 24 1013.3 1013.2 0.0
24/10:00am 28.7 23.1 7.3 26 11.5 ESE 26 35 14 19 1013.8 1013.7 0.0
24/09:47am 27.6 21.2 6.9 27 11.0 SE 30 48 16 26 1013.8 1013.7 0.0
24/09:30am 27.3 21.4 7.7 29 10.5 ESE 28 41 15 22 1014.0 1013.9 0.0
24/09:00am 25.2 19.4 7.8 33 9.2 SE 28 39 15 21 1014.3 1014.2 0.0
24/08:30am 23.9 18.4 9.1 39 8.0 SE 28 41 15 22 1014.4 1014.3 0.0
24/08:00am 22.1 17.1 9.6 45 6.7 SE 26 39 14 21 1014.8 1014.7 0.0
24/07:30am 20.8 16.1 9.4 48 6.1 SE 24 35 13 19 1014.8 1014.7 0.0
24/07:00am 19.5 14.5 9.7 53 5.2 SSE 26 35 14 19 1014.8 1014.7 0.0
24/06:30am 18.2 14.5 10.3 60 4.2 SSE 20 33 11 18 1014.5 1014.4 0.0
24/06:00am 17.0 13.4 10.6 66 3.4 SSE 20 28 11 15 1014.5 1014.4 0.0
24/05:30am 16.4 13.0 10.7 69 3.0 SSE 19 26 10 14 1014.3 1014.2 0.0
24/05:00am 16.7 13.2 11.0 69 3.1 SSE 20 28 11 15 1014.1 1014.0 0.0
24/04:30am 16.9 13.5 11.4 70 3.0 SSE 20 32 11 17 1014.0 1013.9 0.0
24/04:00am 17.1 13.9 11.8 71 2.9 SSE 20 30 11 16 1014.0 1013.9 0.0
24/03:30am 17.4 13.4 11.9 70 3.0 S 24 39 13 21 1014.0 1013.9 0.0
24/03:00am 17.7 14.3 12.4 71 2.9 S 22 30 12 16 1013.9 1013.8 0.0
24/02:30am 18.0 14.7 12.7 71 3.0 SSE 22 33 12 18 1013.9 1013.8 0.0
24/02:00am 18.3 14.7 13.2 72 2.9 S 24 33 13 18 1013.9 1013.8 0.0
24/01:30am 18.6 14.8 13.5 72 2.9 S 26 41 14 22 1014.0 1013.9 0.0
24/01:00am 18.8 14.6 13.6 72 3.0 S 28 41 15 22 1014.1 1014.0 0.0
24/12:30am 19.1 14.7 14.1 73 2.9 S 30 43 16 23 1014.2 1014.1 0.0
24/12:00am 19.2 15.7 14.5 74 2.7 S 26 37 14 20 1014.3 1014.2 0.0
 
Date/Time
WST
Temp
°C
App
Temp
°C
Dew
Point
Rel
Hum
%
Delta-T
°C
Wind Press
QNH
hPa
Press
MSL
hPa
Rain
since 9 am
mm
Dir
 
Spd
km/h
Gust
km/h
Spd
kts
Gust
kts
23/11:30pm 19.4 15.7 14.9 75 2.6 S 28 43 15 23 1014.4 1014.3 0.0
23/11:12pm 19.6 15.9 15.0 75 2.7 S 28 48 15 26 1014.4 1014.3 0.0
23/11:00pm 19.5 15.3 14.7 74 2.8 S 30 43 16 23 1014.5 1014.4 0.0
23/10:30pm 19.5 15.4 15.0 75 2.6 S 30 41 16 22 1014.7 1014.6 0.0
23/10:00pm 19.6 15.0 14.6 73 2.9 S 32 46 17 25 1014.6 1014.5 0.0
23/09:30pm 19.8 14.9 14.4 71 3.1 S 33 52 18 28 1014.4 1014.3 0.0
23/09:08pm 19.7 15.4 14.3 71 3.1 S 30 48 16 26 1014.4 1014.3 0.0
23/09:00pm 19.8 14.6 14.4 71 3.1 S 35 48 19 26 1014.3 1014.2 0.0
23/08:46pm 19.9 15.3 14.5 71 3.1 S 32 50 17 27 1014.1 1014.0 0.0
23/08:30pm 20.0 14.8 14.4 70 3.3 S 35 46 19 25 1014.0 1013.9 0.0
23/08:20pm 20.0 15.1 14.4 70 3.3 S 33 52 18 28 1014.0 1013.9 0.0
23/08:00pm 20.1 14.8 14.2 69 3.4 S 35 48 19 26 1013.8 1013.7 0.0
23/07:36pm 20.4 14.7 14.1 67 3.7 S 37 56 20 30 1013.6 1013.5 0.0
23/07:30pm 20.4 14.3 14.1 67 3.7 S 39 54 21 29 1013.6 1013.5 0.0
23/07:00pm 20.8 14.9 13.5 63 4.2 S 37 48 20 26 1013.3 1013.2 0.0
23/06:30pm 21.6 15.8 14.0 62 4.4 S 37 48 20 26 1013.0 1012.9 0.0
23/06:00pm 22.6 16.8 15.0 62 4.5 SSW 39 54 21 29 1012.7 1012.6 0.0
23/05:30pm 23.0 16.9 14.0 57 5.3 S 39 52 21 28 1012.6 1012.5 0.0
23/05:12pm 24.3 18.6 14.1 53 6.0 SSW 37 56 20 30 1012.7 1012.6 0.0
23/05:00pm 24.1 18.2 13.6 52 6.1 SSW 37 50 20 27 1012.7 1012.6 0.0
23/04:30pm 24.9 19.6 13.1 48 6.9 SSW 33 46 18 25 1012.8 1012.7 0.0
23/04:00pm 25.9 20.7 12.7 44 7.7 S 32 44 17 24 1012.7 1012.6 0.0
23/03:49pm 25.8 20.8 13.3 46 7.3 S 32 52 17 28 1012.7 1012.6 0.0
23/03:30pm 26.0 20.8 12.8 44 7.7 S 32 43 17 23 1012.9 1012.8 0.0
23/03:00pm 26.0 20.7 12.5 43 7.8 S 32 43 17 23 1013.0 1012.9 0.0
23/02:30pm 26.5 21.2 12.5 41 8.1 S 32 43 17 23 1013.2 1013.1 0.0
23/02:00pm 26.1 20.0 11.8 41 8.2 SSW 35 46 19 25 1013.5 1013.4 0.0
23/01:30pm 26.3 20.8 12.0 41 8.2 SSW 32 41 17 22 1013.6 1013.5 0.0
23/01:00pm 26.3 20.4 11.2 38 8.6 SSW 33 46 18 25 1013.7 1013.6 0.0
23/12:30pm 25.9 19.8 11.6 40 8.1 SW 35 46 19 25 1013.8 1013.7 0.0
23/12:00pm 25.7 19.7 10.7 39 8.4 SSW 33 43 18 23 1014.3 1014.2 0.0
23/11:30am 26.6 21.6 11.1 38 8.8 S 28 46 15 25 1014.8 1014.7 0.0
23/11:00am 24.7 20.2 10.2 40 8.0 S 24 37 13 20 1015.1 1015.0 0.0
23/10:30am 25.0 20.0 10.8 41 7.9 S 28 41 15 22 1015.4 1015.3 0.0
23/10:00am 24.9 20.1 11.8 44 7.4 S 28 39 15 21 1015.6 1015.5 0.0
23/09:30am 23.6 18.7 11.3 46 6.9 SSE 28 43 15 23 1015.8 1015.7 0.0
23/09:03am 22.6 17.4 10.4 46 6.7 SSE 28 46 15 25 1016.0 1015.9 0.0
23/09:00am 23.4 18.4 10.8 45 7.0 SSE 28 44 15 24 1016.0 1015.9 0.0
23/08:30am 22.1 17.1 10.9 49 6.2 SSE 28 48 15 26 1016.2 1016.1 0.0
23/08:26am 22.3 17.0 11.1 49 6.2 SSE 30 48 16 26 1016.1 1016.0 0.0
23/08:00am 21.0 16.6 11.6 55 5.2 SE 26 37 14 20 1016.1 1016.0 0.0
23/07:30am 20.3 15.6 12.0 59 4.6 SSE 28 35 15 19 1015.9 1015.8 0.0
23/07:00am 19.4 14.8 12.2 63 4.0 SE 28 39 15 21 1015.7 1015.6 0.0
23/06:30am 18.6 15.7 12.8 69 3.3 SSE 20 32 11 17 1015.4 1015.3 0.0
23/06:00am 16.9 14.7 12.2 74 2.6 SSE 15 19 8 10 1015.0 1014.9 0.0
23/05:30am 16.7 14.6 12.3 75 2.4 SE 15 19 8 10 1014.6 1014.5 0.0
23/05:00am 16.3 14.5 12.1 76 2.3 SE 13 15 7 8 1014.2 1014.1 0.0
23/04:30am 16.3 14.6 12.3 77 2.2 SE 13 19 7 10 1013.8 1013.7 0.0
23/04:00am 16.4 14.6 12.0 75 2.4 SSE 13 17 7 9 1013.6 1013.5 0.0
23/03:30am 17.1 14.6 12.2 73 2.7 SE 17 20 9 11 1013.5 1013.4 0.0
23/03:00am 17.5 15.3 12.2 71 2.9 SSE 15 20 8 11 1013.4 1013.3 0.0
23/02:30am 17.9 15.4 12.4 70 3.1 SSE 17 22 9 12 1013.3 1013.2 0.0
23/02:00am 17.9 15.3 12.1 69 3.2 SSE 17 20 9 11 1013.5 1013.4 0.0
23/01:30am 17.9 16.6 12.4 70 3.1 SSE 11 17 6 9 1013.6 1013.5 0.0
23/01:00am 18.1 16.2 11.9 67 3.4 S 13 19 7 10 1013.8 1013.7 0.0
23/12:30am 18.5 15.5 12.0 66 3.6 S 19 26 10 14 1014.1 1014.0 0.0
23/12:00am 18.7 15.5 12.0 65 3.7 S 20 30 11 16 1014.1 1014.0 0.0
 
Date/Time
WST
Temp
°C
App
Temp
°C
Dew
Point
Rel
Hum
%
Delta-T
°C
Wind Press
QNH
hPa
Press
MSL
hPa
Rain
since 9 am
mm
Dir
 
Spd
km/h
Gust
km/h
Spd
kts
Gust
kts
22/11:30pm 18.9 15.9 11.9 64 3.9 S 19 28 10 15 1014.4 1014.3 0.0
22/11:00pm 19.2 16.4 12.5 65 3.8 S 19 30 10 16 1014.5 1014.4 0.0
22/10:30pm 19.1 15.6 12.1 64 3.9 S 22 32 12 17 1014.8 1014.7 0.0
22/10:00pm 19.1 15.6 12.1 64 3.9 S 22 30 12 16 1014.8 1014.7 0.0
22/09:30pm 19.3 16.2 12.3 64 3.9 S 20 30 11 16 1014.6 1014.5 0.0
22/09:00pm 19.7 16.0 12.7 64 3.9 SSW 24 35 13 19 1014.7 1014.6 0.0
22/08:30pm 19.9 16.1 12.4 62 4.2 SSW 24 32 13 17 1014.6 1014.5 0.0
22/08:00pm 20.3 15.5 11.5 57 4.9 SSW 28 39 15 21 1014.4 1014.3 0.0
22/07:30pm 20.6 15.5 10.7 53 5.4 SSW 28 37 15 20 1014.0 1013.9 0.0
22/07:00pm 21.1 16.0 10.6 51 5.7 SSW 28 33 15 18 1013.8 1013.7 0.0
22/06:30pm 22.0 17.3 10.8 49 6.2 S 26 35 14 19 1013.5 1013.4 0.0
22/06:00pm 23.0 17.8 10.1 44 7.1 S 28 35 15 19 1013.3 1013.2 0.0
22/05:30pm 23.8 18.0 9.4 40 7.8 SSW 30 41 16 22 1013.0 1012.9 0.0
22/05:00pm 24.7 19.1 10.2 40 8.0 S 30 37 16 20 1012.9 1012.8 0.0
22/04:30pm 25.1 20.1 10.9 41 8.0 SW 28 41 15 22 1012.9 1012.8 0.0
22/04:00pm 25.9 23.1 13.1 45 7.5 SW 20 28 11 15 1012.9 1012.8 0.0
22/03:30pm 26.5 23.7 13.3 44 7.8 SSW 20 33 11 18 1013.1 1013.0 0.0
22/03:00pm 25.4 22.5 12.3 44 7.5 SW 19 32 10 17 1013.3 1013.2 0.0
22/02:30pm 25.6 22.3 11.7 42 7.9 SSW 20 30 11 16 1013.4 1013.3 0.0
22/02:00pm 26.9 24.2 12.9 42 8.2 WSW 19 28 10 15 1013.7 1013.6 0.0
22/01:30pm 27.7 25.4 12.9 40 8.7 SW 17 26 9 14 1013.8 1013.7 0.0
22/01:00pm 27.0 24.6 12.6 41 8.4 SW 17 26 9 14 1014.0 1013.9 0.0
22/12:30pm 27.1 24.1 12.0 39 8.7 SW 19 28 10 15 1014.0 1013.9 0.0
22/12:00pm 25.6 22.3 11.7 42 7.9 WSW 20 28 11 15 1014.3 1014.2 0.0
22/11:30am 26.6 23.8 12.6 42 8.1 SW 19 28 10 15 1014.5 1014.4 0.0
22/11:00am 26.3 24.2 12.4 42 8.0 SW 15 26 8 14 1014.6 1014.5 0.0
22/10:30am 25.9 23.8 12.4 43 7.8 S 15 22 8 12 1014.8 1014.7 0.0
22/10:00am 25.0 22.0 11.9 44 7.5 SW 19 26 10 14 1015.0 1014.9 0.0
22/09:30am 24.2 22.2 12.8 49 6.6 S 15 24 8 13 1015.2 1015.1 0.0
22/09:00am 22.6 20.9 13.7 57 5.2 SSE 15 22 8 12 1015.3 1015.2 0.0
22/08:30am 21.2 18.9 14.1 64 4.1 SSE 19 24 10 13 1015.3 1015.2 0.0

Other Formats:

Comma delimited format used in spreadsheet applications
http://www.bom.gov.au/fwo/IDW60801/IDW60801.95402.axf

JavaScript Object Notation format (JSON) in row-major order
http://www.bom.gov.au/fwo/IDW60801/IDW60801.95402.json